Time;durP1;ratioP1;P1;durP2;ratioP2;P2;SDS_P1;SDS_P2;PMS_P1;PMS_P2;Temp;Humidity;BMP_temperature;BMP_pressure;BME280_temperature;BME280_humidity;BME280_pressure;Samples;Min_cycle;Max_cycle;Signal;HPM_P1;HPM_P2
2021/08/05 00:02:25;;;;;;;12.05;9.07;;;;;;;19.54;72.79;101154.44;4834445;29;20089;-64
2021/08/05 00:04:51;;;;;;;12.45;9.10;;;;;;;19.46;73.40;101143.91;4816829;29;20854;-64
2021/08/05 00:07:18;;;;;;;12.43;9.13;;;;;;;19.41;73.45;101149.03;4848294;29;20498;-64
2021/08/05 00:09:44;;;;;;;14.68;9.52;;;;;;;19.38;73.53;101144.09;4846617;29;20144;-64
2021/08/05 00:12:13;;;;;;;13.45;10.13;;;;;;;19.39;73.87;101147.59;4844146;29;20053;-64
2021/08/05 00:14:41;;;;;;;15.90;10.27;;;;;;;19.40;73.93;101143.91;4843279;29;20149;-64
2021/08/05 00:17:08;;;;;;;;;;;;;;;19.43;73.33;101136.34;4854316;29;20101;-64
2021/08/05 00:19:34;;;;;;;14.05;11.40;;;;;;;19.36;73.94;101138.97;4841944;29;20026;-64
2021/08/05 00:22:01;;;;;;;13.63;10.80;;;;;;;19.56;73.32;101136.41;4849626;29;20148;-64
2021/08/05 00:24:27;;;;;;;15.27;10.57;;;;;;;19.42;73.84;101139.19;4852727;29;20152;-64
2021/08/05 00:26:54;;;;;;;15.32;11.45;;;;;;;19.31;74.94;101132.63;4846311;29;20864;-62
2021/08/05 00:29:20;;;;;;;15.18;11.48;;;;;;;19.54;75.00;101132.28;4853630;29;20071;-64
2021/08/05 00:31:47;;;;;;;17.15;11.82;;;;;;;19.59;72.94;101127.22;4844444;29;20076;-61
2021/08/05 00:34:16;;;;;;;12.95;10.95;;;;;;;19.47;73.63;101118.16;4849362;29;20058;-63
2021/08/05 00:36:42;;;;;;;15.63;11.70;;;;;;;19.32;74.77;101129.75;4846824;29;20510;-64
2021/08/05 00:39:09;;;;;;;14.73;11.07;;;;;;;19.26;75.47;101127.06;4845542;29;20148;-63
2021/08/05 00:41:35;;;;;;;16.27;11.45;;;;;;;19.59;75.08;101124.56;4829471;29;20077;-63
2021/08/05 00:44:02;;;;;;;14.18;11.10;;;;;;;19.28;75.25;101117.84;4833836;29;20601;-63
2021/08/05 00:46:29;;;;;;;15.60;10.75;;;;;;;19.28;74.81;101125.03;4829473;29;20085;-63
2021/08/05 00:48:57;;;;;;;12.85;10.88;;;;;;;20.30;71.54;101113.47;4834553;29;20053;-63
2021/08/05 00:51:24;;;;;;;14.20;10.90;;;;;;;19.54;73.48;101108.34;4852289;29;20089;-64
2021/08/05 00:53:50;;;;;;;12.38;10.20;;;;;;;19.71;73.88;101103.50;4830333;29;20562;-64
2021/08/05 00:56:17;;;;;;;14.73;10.27;;;;;;;19.27;75.52;101110.91;4828459;29;20057;-63
2021/08/05 00:58:43;;;;;;;13.63;10.38;;;;;;;19.22;76.01;101105.34;4828474;29;20137;-64
2021/08/05 01:01:14;;;;;;;13.13;10.38;;;;;;;19.45;74.47;101107.72;4826752;29;20485;-63
2021/08/05 01:03:43;;;;;;;12.90;10.23;;;;;;;19.30;75.63;101109.69;4829982;29;20058;-64
2021/08/05 01:06:35;;;;;;;13.52;11.32;;;;;;;19.19;75.59;101115.56;4834201;29;20122;-64
2021/08/05 01:09:10;;;;;;;17.42;12.52;;;;;;;19.28;74.84;101114.38;4834899;29;20161;-63
2021/08/05 01:11:43;;;;;;;16.42;13.20;;;;;;;19.20;75.04;101111.88;4831643;29;20064;-64
2021/08/05 01:14:15;;;;;;;18.38;13.02;;;;;;;19.18;75.11;101114.72;4841840;29;20152;-64
2021/08/05 01:16:44;;;;;;;15.85;12.00;;;;;;;19.46;74.92;101112.00;4842739;29;20072;-64
2021/08/05 01:19:26;;;;;;;16.30;12.20;;;;;;;19.24;74.70;101113.13;4852365;29;20060;-64
2021/08/05 01:22:06;;;;;;;14.55;11.57;;;;;;;19.42;73.85;101115.25;4845159;29;20089;-64
2021/08/05 01:24:36;;;;;;;12.13;10.40;;;;;;;19.53;73.45;101112.84;4852405;29;20152;-63
2021/08/05 01:27:03;;;;;;;14.20;9.85;;;;;;;19.41;73.65;101113.63;4842803;29;20875;-64
2021/08/05 01:29:33;;;;;;;11.23;9.50;;;;;;;19.15;74.81;101113.31;4848062;29;20647;-64
2021/08/05 01:32:03;;;;;;;14.98;10.23;;;;;;;19.24;74.43;101105.97;4846053;29;20416;-64
2021/08/05 01:34:31;;;;;;;14.98;10.55;;;;;;;19.45;73.59;101093.59;4852308;29;20508;-64
2021/08/05 01:36:58;;;;;;;14.70;11.02;;;;;;;19.63;72.62;101103.69;4846546;29;20061;-64
2021/08/05 01:39:28;;;;;;;22.50;11.23;;;;;;;19.61;72.56;101087.91;4842170;29;20169;-64
2021/08/05 01:41:55;;;;;;;14.85;11.68;;;;;;;19.30;73.85;101093.72;4826794;29;20523;-64
2021/08/05 01:44:22;;;;;;;15.27;11.35;;;;;;;19.02;75.64;101094.59;4826450;29;20189;-64
2021/08/05 01:46:49;;;;;;;14.88;11.25;;;;;;;18.96;75.72;101096.19;4834808;29;20153;-64
2021/08/05 01:49:17;;;;;;;14.90;11.77;;;;;;;19.06;75.60;101090.53;4841087;29;20081;-64
2021/08/05 01:51:47;;;;;;;14.88;11.82;;;;;;;19.32;74.21;101081.88;4851747;29;20057;-64
2021/08/05 01:54:14;;;;;;;19.15;11.57;;;;;;;19.13;75.23;101085.25;4819614;29;20086;-64
2021/08/05 01:56:40;;;;;;;16.20;11.50;;;;;;;19.27;74.75;101080.84;4828898;29;20126;-63
2021/08/05 01:59:07;;;;;;;15.40;11.70;;;;;;;19.21;74.92;101084.25;4827529;29;20594;-64
2021/08/05 02:01:35;;;;;;;15.50;11.85;;;;;;;19.15;74.67;101089.38;4832057;29;20086;-63
2021/08/05 02:04:21;;;;;;;15.80;12.50;;;;;;;19.08;75.46;101090.34;4833390;29;20061;-64
2021/08/05 02:06:58;;;;;;;18.20;12.35;;;;;;;19.06;76.17;101087.06;4824620;29;20169;-64
2021/08/05 02:09:31;;;;;;;18.17;12.75;;;;;;;18.87;76.56;101081.41;4832828;29;20148;-64
2021/08/05 02:11:58;;;;;;;17.58;13.35;;;;;;;19.16;75.83;101080.34;4826598;29;20455;-64
2021/08/05 02:14:28;;;;;;;15.90;12.80;;;;;;;19.22;74.85;101076.09;4846538;29;20953;-64
2021/08/05 02:16:55;;;;;;;18.20;12.98;;;;;;;19.07;75.42;101073.59;4846347;29;20049;-64
2021/08/05 02:19:22;;;;;;;17.73;13.80;;;;;;;19.00;76.22;101069.25;4847176;29;20148;-64
2021/08/05 02:21:50;;;;;;;17.58;13.55;;;;;;;19.04;76.02;101073.97;4842190;29;20108;-65
2021/08/05 02:24:18;;;;;;;17.87;13.97;;;;;;;18.93;76.20;101074.50;4851726;29;20057;-64
2021/08/05 02:26:45;;;;;;;;;;;;;;;18.80;76.32;101069.09;4844659;29;20137;-64
2021/08/05 02:29:11;;;;;;;17.05;12.80;;;;;;;18.69;77.83;101063.28;4851900;29;20031;-64
2021/08/05 02:31:38;;;;;;;20.42;13.88;;;;;;;18.91;77.00;101063.25;4846401;29;20913;-64
2021/08/05 02:34:07;;;;;;;19.35;13.88;;;;;;;18.87;76.70;101062.00;4840135;29;20057;-64
2021/08/05 02:36:34;;;;;;;21.88;13.63;;;;;;;18.96;76.79;101066.16;4850779;29;20152;-64
2021/08/05 02:39:00;;;;;;;16.75;14.07;;;;;;;19.12;75.54;101062.34;4836968;29;20148;-64
2021/08/05 02:41:27;;;;;;;18.83;14.57;;;;;;;19.31;74.47;101060.81;4832113;29;20162;-64
2021/08/05 02:43:56;;;;;;;17.25;14.50;;;;;;;19.38;74.03;101058.97;4826255;29;20795;-64
2021/08/05 02:46:24;;;;;;;21.67;14.55;;;;;;;19.35;74.18;101068.19;4828532;29;20153;-64
2021/08/05 02:48:53;;;;;;;17.90;14.27;;;;;;;19.29;73.81;101063.66;4831191;29;20130;-64
2021/08/05 02:51:20;;;;;;;21.80;13.95;;;;;;;18.66;77.06;101058.38;4850814;29;20096;-64
2021/08/05 02:53:47;;;;;;;17.83;14.63;;;;;;;18.42;79.05;101061.44;4836167;29;20145;-64
2021/08/05 02:56:16;;;;;;;18.88;14.98;;;;;;;18.24;80.73;101064.56;4822251;29;20518;-64
2021/08/05 02:58:43;;;;;;;22.98;15.57;;;;;;;18.37;79.43;101064.69;4835277;29;20092;-64
2021/08/05 03:01:10;;;;;;;21.27;15.68;;;;;;;18.71;78.39;101061.25;4819699;29;20598;-64
2021/08/05 03:03:37;;;;;;;22.17;14.43;;;;;;;18.55;78.22;101054.41;4838197;29;20062;-64
2021/08/05 03:06:04;;;;;;;22.52;14.25;;;;;;;18.25;79.71;101053.75;4829326;29;20548;-64
2021/08/05 03:08:40;;;;;;;19.05;15.27;;;;;;;18.13;80.98;101053.47;4836666;29;20061;-64
2021/08/05 03:11:06;;;;;;;18.95;15.73;;;;;;;18.23;81.30;101050.47;4843525;29;20140;-64
2021/08/05 03:13:33;;;;;;;23.88;16.85;;;;;;;18.30;80.15;101051.34;4830543;29;20157;-64
2021/08/05 03:16:00;;;;;;;21.45;17.17;;;;;;;18.19;80.87;101051.88;4831702;29;20141;-64
2021/08/05 03:18:26;;;;;;;20.60;16.63;;;;;;;18.23;80.52;101045.16;4830847;29;20085;-64
2021/08/05 03:20:53;;;;;;;20.17;16.60;;;;;;;18.21;80.84;101044.53;4834090;29;20053;-64
2021/08/05 03:23:19;;;;;;;21.40;17.33;;;;;;;18.57;79.36;101041.75;4829779;29;20087;-64
2021/08/05 03:25:45;;;;;;;24.95;17.88;;;;;;;18.82;78.06;101043.16;4836227;29;20707;-64
2021/08/05 03:28:12;;;;;;;23.67;17.83;;;;;;;18.38;79.38;101039.75;4823783;29;20466;-64
2021/08/05 03:30:38;;;;;;;24.05;17.00;;;;;;;18.24;80.59;101045.97;4832418;29;20148;-64
2021/08/05 03:33:05;;;;;;;23.25;16.27;;;;;;;18.34;80.24;101041.16;4830430;29;20164;-64
2021/08/05 03:35:31;;;;;;;24.20;16.67;;;;;;;18.33;80.95;101039.53;4840765;29;20081;-64
2021/08/05 03:37:58;;;;;;;23.48;17.10;;;;;;;18.46;80.21;101036.16;4854134;29;20600;-64
2021/08/05 03:40:24;;;;;;;20.10;16.48;;;;;;;18.69;78.34;101033.25;4827851;29;20136;-64
2021/08/05 03:42:51;;;;;;;21.02;15.85;;;;;;;18.78;78.02;101030.25;4831802;29;20150;-64
2021/08/05 03:45:17;;;;;;;23.45;17.30;;;;;;;18.39;79.87;101033.44;4828821;29;20144;-64
2021/08/05 03:47:44;;;;;;;21.23;16.92;;;;;;;18.22;80.79;101029.44;4836538;29;20097;-64
2021/08/05 03:50:11;;;;;;;23.50;17.77;;;;;;;18.21;81.00;101030.44;4848191;29;20429;-64
2021/08/05 03:52:39;;;;;;;24.77;17.95;;;;;;;18.28;80.93;101029.47;4853203;29;20065;-64
2021/08/05 03:55:12;;;;;;;26.45;18.42;;;;;;;18.62;79.30;101021.75;4808685;29;20066;-64
2021/08/05 03:57:43;;;;;;;24.80;18.80;;;;;;;18.30;80.23;101023.97;4834982;29;21041;-64
2021/08/05 04:00:12;;;;;;;23.95;17.85;;;;;;;18.50;80.01;101017.00;4835319;29;20141;-64
2021/08/05 04:02:39;;;;;;;23.27;17.05;;;;;;;18.48;79.67;101011.03;4828066;29;20583;-64
2021/08/05 04:05:07;;;;;;;24.90;17.52;;;;;;;18.61;78.84;101018.28;4835866;29;20053;-64
2021/08/05 04:07:33;;;;;;;25.75;17.27;;;;;;;18.25;80.49;101013.09;4825548;29;20148;-63
2021/08/05 04:10:00;;;;;;;24.23;17.15;;;;;;;18.27;81.03;101021.69;4839516;29;20482;-64
2021/08/05 04:12:26;;;;;;;27.40;18.42;;;;;;;18.05;81.92;101013.75;4835740;29;20557;-64
2021/08/05 04:14:53;;;;;;;27.58;19.50;;;;;;;17.90;82.67;101018.34;4835795;29;20152;-64
2021/08/05 04:17:19;;;;;;;25.35;18.73;;;;;;;18.11;82.36;101014.81;4830884;29;20062;-65
2021/08/05 04:19:46;;;;;;;26.63;18.40;;;;;;;18.29;81.04;101015.19;4835377;29;20729;-64
2021/08/05 04:22:15;;;;;;;26.42;19.20;;;;;;;17.96;82.30;101017.56;4827560;29;20550;-65
2021/08/05 04:24:42;;;;;;;22.85;17.90;;;;;;;18.05;82.57;101024.38;4826927;29;20066;-64
2021/08/05 04:27:08;;;;;;;29.02;18.90;;;;;;;18.05;82.51;101021.72;4835550;29;20085;-64
2021/08/05 04:29:35;;;;;;;29.23;19.05;;;;;;;17.96;82.60;101026.34;4829225;29;20543;-64
2021/08/05 04:32:02;;;;;;;26.42;19.27;;;;;;;18.30;81.07;101024.78;4834276;29;20822;-64
2021/08/05 04:34:28;;;;;;;23.17;17.45;;;;;;;18.11;81.48;101015.66;4825428;29;20101;-64
2021/08/05 04:36:55;;;;;;;27.70;19.00;;;;;;;18.46;80.24;101020.22;4831196;29;20145;-64
2021/08/05 04:39:21;;;;;;;27.15;18.63;;;;;;;18.53;79.43;101021.09;4833712;29;20132;-65
2021/08/05 04:41:47;;;;;;;28.60;19.15;;;;;;;18.68;78.99;101027.13;4832727;29;20132;-64
2021/08/05 04:44:14;;;;;;;25.33;18.83;;;;;;;18.70;78.69;101022.44;4835782;29;20185;-64
2021/08/05 04:46:40;;;;;;;25.50;17.73;;;;;;;18.33;80.63;101026.25;4828247;29;20093;-64
2021/08/05 04:49:07;;;;;;;26.83;18.83;;;;;;;18.21;81.96;101025.13;4846440;29;20762;-64
2021/08/05 04:51:33;;;;;;;22.55;17.45;;;;;;;18.07;82.76;101011.75;4845370;29;20064;-64
2021/08/05 04:54:02;;;;;;;27.40;17.92;;;;;;;18.07;82.90;101018.88;4833204;29;20057;-64
2021/08/05 04:56:30;;;;;;;27.58;19.10;;;;;;;18.11;82.82;101022.78;4823183;29;20920;-64
2021/08/05 04:58:56;;;;;;;25.30;17.77;;;;;;;18.25;81.31;101021.06;4827418;29;20097;-64
2021/08/05 05:01:23;;;;;;;27.10;19.13;;;;;;;18.33;81.47;101028.91;4830272;29;20141;-63
2021/08/05 05:03:50;;;;;;;28.02;20.27;;;;;;;18.63;79.99;101034.84;4830249;29;20062;-64
2021/08/05 05:06:17;;;;;;;31.33;20.45;;;;;;;18.77;78.59;101028.59;4834280;29;20157;-63
2021/08/05 05:08:43;;;;;;;30.40;19.85;;;;;;;18.81;78.51;101018.41;4827925;29;20644;-64
2021/08/05 05:11:09;;;;;;;30.35;20.55;;;;;;;18.60;78.71;101013.97;4837377;29;20169;-64
2021/08/05 05:13:36;;;;;;;29.30;20.48;;;;;;;18.70;78.95;101022.44;4824888;29;20176;-64
2021/08/05 05:16:03;;;;;;;31.17;21.35;;;;;;;18.83;77.95;101020.88;4832601;29;20141;-64
2021/08/05 05:18:29;;;;;;;31.00;21.27;;;;;;;18.99;76.87;101015.22;4826648;29;20228;-64
2021/08/05 05:20:55;;;;;;;34.80;22.90;;;;;;;18.93;76.91;101016.03;4830425;29;20080;-64
2021/08/05 05:23:22;;;;;;;33.88;22.70;;;;;;;18.80;76.88;101011.47;4833601;29;20584;-64
2021/08/05 05:25:48;;;;;;;32.38;23.77;;;;;;;18.60;78.41;101008.66;4821807;29;20180;-64
2021/08/05 05:28:15;;;;;;;32.78;22.05;;;;;;;19.00;76.56;101006.25;4833872;29;20060;-64
2021/08/05 05:30:42;;;;;;;40.60;25.05;;;;;;;19.10;75.56;101006.69;4826960;29;20426;-64
2021/08/05 05:33:08;;;;;;;38.53;24.80;;;;;;;19.07;75.78;101011.59;4833853;29;20553;-64
2021/08/05 05:35:36;;;;;;;37.33;25.13;;;;;;;19.01;76.32;101005.22;4828150;29;20137;-64
2021/08/05 05:38:03;;;;;;;37.80;25.43;;;;;;;19.17;75.58;101007.56;4830589;29;20145;-64
2021/08/05 05:40:29;;;;;;;37.10;25.83;;;;;;;19.20;75.52;101005.53;4825782;29;20149;-64
2021/08/05 05:42:56;;;;;;;33.92;25.05;;;;;;;19.28;75.07;101003.50;4848542;29;20042;-64
2021/08/05 05:45:23;;;;;;;34.67;25.00;;;;;;;19.05;75.90;101000.34;4833529;29;20136;-64
2021/08/05 05:47:50;;;;;;;43.47;25.83;;;;;;;18.74;77.64;100997.09;4829405;29;20093;-64
2021/08/05 05:50:17;;;;;;;36.55;26.40;;;;;;;18.81;77.87;100996.34;4850035;29;20107;-64
2021/08/05 05:52:47;;;;;;;42.17;26.45;;;;;;;19.02;76.75;100993.59;4819792;29;20049;-64
2021/08/05 05:55:14;;;;;;;35.15;25.25;;;;;;;19.11;76.11;100992.41;4828136;29;20057;-64
2021/08/05 05:57:40;;;;;;;39.78;26.80;;;;;;;19.09;76.21;100988.28;4827065;29;20593;-64
2021/08/05 06:00:08;;;;;;;37.55;26.08;;;;;;;19.10;76.31;100989.94;4832191;29;20057;-64
2021/08/05 06:02:35;;;;;;;36.58;25.70;;;;;;;19.12;76.04;100983.41;4827589;29;20118;-64
2021/08/05 06:05:02;;;;;;;38.03;26.08;;;;;;;19.12;75.47;100993.22;4829069;29;20060;-64
2021/08/05 06:07:28;;;;;;;38.25;26.48;;;;;;;19.17;75.81;100999.59;4829024;29;20232;-64
2021/08/05 06:09:55;;;;;;;37.40;26.30;;;;;;;19.21;75.64;101000.00;4825401;29;20080;-64
2021/08/05 06:12:21;;;;;;;42.53;26.67;;;;;;;19.23;75.68;101002.44;4831674;29;20089;-64
2021/08/05 06:14:51;;;;;;;37.13;25.13;;;;;;;19.35;75.01;101006.19;4826242;29;20058;-64
2021/08/05 06:17:18;;;;;;;36.67;26.27;;;;;;;19.16;74.85;101005.91;4833192;29;20054;-64
2021/08/05 06:19:44;;;;;;;42.63;27.23;;;;;;;18.96;76.66;101002.34;4822166;29;20228;-63
2021/08/05 06:22:11;;;;;;;43.75;28.42;;;;;;;19.30;75.56;101008.63;4827143;29;20156;-64
2021/08/05 06:24:37;;;;;;;45.50;27.25;;;;;;;19.45;74.77;101006.63;4827202;29;20145;-64
2021/08/05 06:27:04;;;;;;;44.45;26.23;;;;;;;19.28;74.96;101008.00;4832481;29;20149;-64
2021/08/05 06:29:32;;;;;;;39.38;27.35;;;;;;;19.08;76.11;101005.28;4832240;29;20656;-64
2021/08/05 06:31:59;;;;;;;39.42;28.52;;;;;;;19.07;76.10;101012.44;4825504;29;20162;-64
2021/08/05 06:34:25;;;;;;;39.47;27.23;;;;;;;19.09;76.33;101017.53;4827229;29;20144;-65
2021/08/05 06:36:52;;;;;;;39.80;27.88;;;;;;;18.94;77.27;101009.72;4825567;29;20093;-65
2021/08/05 06:39:18;;;;;;;42.92;28.13;;;;;;;19.38;76.40;101013.75;4833452;29;20061;-64
2021/08/05 06:41:45;;;;;;;41.08;27.50;;;;;;;19.11;77.80;101003.03;4834667;29;20383;-64
2021/08/05 06:44:11;;;;;;;42.63;27.42;;;;;;;19.11;77.02;101010.16;4832983;29;20148;-64
2021/08/05 06:46:38;;;;;;;48.72;27.50;;;;;;;19.21;76.98;101015.97;4829380;29;20061;-65
2021/08/05 06:49:05;;;;;;;42.25;28.67;;;;;;;19.33;75.87;101006.38;4829096;29;20053;-65
2021/08/05 06:51:31;;;;;;;43.42;28.95;;;;;;;19.30;75.42;101009.44;4831827;29;20097;-65
2021/08/05 06:53:58;;;;;;;43.47;29.63;;;;;;;19.33;75.67;101013.56;4824999;29;20137;-64
2021/08/05 06:56:25;;;;;;;47.40;28.88;;;;;;;19.67;73.90;101017.94;4833059;29;20054;-64
2021/08/05 06:58:52;;;;;;;45.28;29.55;;;;;;;19.84;73.68;101007.75;4827107;29;20100;-64
2021/08/05 07:01:18;;;;;;;45.65;29.17;;;;;;;19.92;73.26;101007.56;4821907;29;20141;-64
2021/08/05 07:03:45;;;;;;;44.63;30.23;;;;;;;19.99;72.70;100996.91;4826435;29;20054;-63
2021/08/05 07:06:12;;;;;;;43.38;30.92;;;;;;;19.94;72.11;101008.19;4833113;29;20171;-65
2021/08/05 07:08:38;;;;;;;49.53;32.15;;;;;;;19.56;74.20;101002.53;4832717;29;20098;-64
2021/08/05 07:11:05;;;;;;;51.53;35.00;;;;;;;19.64;74.69;101004.19;4842329;29;20092;-64
2021/08/05 07:13:31;;;;;;;50.00;32.95;;;;;;;19.66;75.18;101010.97;4828856;29;20141;-64
2021/08/05 07:15:58;;;;;;;52.65;33.40;;;;;;;19.68;75.18;101011.59;4823377;29;20535;-64
2021/08/05 07:18:24;;;;;;;52.40;32.22;;;;;;;19.80;74.59;101011.84;4833052;29;20467;-64
2021/08/05 07:20:50;;;;;;;50.88;33.65;;;;;;;19.71;73.96;101005.88;4825307;29;20563;-63
2021/08/05 07:23:17;;;;;;;47.92;33.45;;;;;;;19.80;74.57;101008.34;4833163;29;20141;-63
2021/08/05 07:25:44;;;;;;;52.55;34.60;;;;;;;19.77;74.15;101009.59;4829873;29;20148;-62
2021/08/05 07:28:11;;;;;;;55.40;34.03;;;;;;;19.61;75.59;101015.25;4822918;29;20141;-63
2021/08/05 07:30:38;;;;;;;50.00;34.22;;;;;;;19.56;75.63;101006.06;4831382;29;20093;-63
2021/08/05 07:33:04;;;;;;;54.50;35.97;;;;;;;19.68;73.92;101011.59;4826167;29;20144;-63
2021/08/05 07:35:31;;;;;;;57.42;35.35;;;;;;;19.63;72.97;101013.22;4832171;29;20141;-63
2021/08/05 07:37:57;;;;;;;60.28;35.30;;;;;;;19.60;73.76;101008.28;4827389;29;20065;-63
2021/08/05 07:40:24;;;;;;;58.58;37.33;;;;;;;19.79;73.66;101002.22;4811141;29;20550;-63
2021/08/05 07:42:50;;;;;;;56.80;34.20;;;;;;;19.96;72.50;101002.66;4804257;29;20058;-63
2021/08/05 07:45:16;;;;;;;63.75;37.50;;;;;;;20.14;72.44;100992.19;4817326;29;20741;-63
2021/08/05 07:47:43;;;;;;;60.63;36.88;;;;;;;20.30;72.09;100988.28;4819228;29;20197;-63
2021/08/05 07:50:13;;;;;;;61.22;37.67;;;;;;;20.39;71.52;100983.59;4848484;29;20075;-63
2021/08/05 07:52:41;;;;;;;66.35;38.92;;;;;;;20.45;71.44;100982.75;4853298;29;20104;-63
2021/08/05 07:55:08;;;;;;;61.85;39.03;;;;;;;20.48;70.75;100974.34;4811005;29;20144;-63
2021/08/05 07:57:35;;;;;;;66.53;39.30;;;;;;;20.53;71.16;100969.19;4833053;29;20502;-63
2021/08/05 08:00:03;;;;;;;59.92;38.10;;;;;;;20.64;71.09;100969.59;4828112;29;20064;-63
2021/08/05 08:02:29;;;;;;;53.30;35.15;;;;;;;20.76;71.59;100967.09;4834415;29;20559;-63
2021/08/05 08:04:56;;;;;;;57.60;37.08;;;;;;;20.82;71.93;100968.97;4830297;29;20896;-63
2021/08/05 08:07:22;;;;;;;64.53;38.60;;;;;;;20.85;72.54;100958.66;4831131;29;20455;-63
2021/08/05 08:09:49;;;;;;;62.08;38.28;;;;;;;20.84;72.71;100962.38;4838102;29;20152;-63
2021/08/05 08:12:16;;;;;;;58.10;37.53;;;;;;;20.87;72.96;100969.13;4836281;29;20148;-63
2021/08/05 08:14:42;;;;;;;70.22;42.63;;;;;;;20.90;73.27;100963.38;4835990;29;20085;-63
2021/08/05 08:17:09;;;;;;;65.80;41.38;;;;;;;21.08;71.43;100965.34;4828923;29;20102;-63
2021/08/05 08:19:36;;;;;;;72.35;42.88;;;;;;;21.20;70.57;100970.84;4834910;29;20153;-63
2021/08/05 08:22:02;;;;;;;69.85;42.70;;;;;;;21.24;70.50;100970.19;4823672;29;20130;-63
2021/08/05 08:24:29;;;;;;;79.68;40.83;;;;;;;21.36;70.09;100970.31;4830574;29;20587;-63
2021/08/05 08:26:55;;;;;;;72.43;43.55;;;;;;;21.48;69.75;100974.00;4829625;29;20525;-63
2021/08/05 08:29:22;;;;;;;78.80;42.60;;;;;;;21.64;69.12;100966.47;4834488;29;20097;-62
2021/08/05 08:31:49;;;;;;;78.80;44.38;;;;;;;21.79;68.81;100968.84;4834622;29;20093;-63
2021/08/05 08:34:16;;;;;;;69.15;41.70;;;;;;;22.02;68.61;100966.41;4828357;29;20059;-63
2021/08/05 08:36:43;;;;;;;72.03;44.00;;;;;;;22.33;67.75;100969.25;4828659;29;20665;-63
2021/08/05 08:39:10;;;;;;;79.18;43.67;;;;;;;22.53;65.03;100967.19;4819513;29;20745;-63
2021/08/05 08:41:39;;;;;;;78.97;42.25;;;;;;;22.95;65.79;100967.28;4816342;29;20165;-63
2021/08/05 08:44:05;;;;;;;72.43;43.88;;;;;;;22.90;61.93;100965.31;4810844;29;20119;-63
2021/08/05 08:46:34;;;;;;;81.90;44.88;;;;;;;22.93;61.94;100955.19;4816242;29;20592;-63
2021/08/05 08:49:02;;;;;;;85.00;46.58;;;;;;;23.27;62.38;100954.56;4827340;29;20097;-63
2021/08/05 08:51:31;;;;;;;83.35;42.95;;;;;;;23.46;63.37;100955.34;4848366;29;20140;-63
2021/08/05 08:54:02;;;;;;;77.85;41.55;;;;;;;23.65;62.89;100944.53;4834342;29;20144;-63
2021/08/05 08:56:30;;;;;;;70.03;42.53;;;;;;;24.10;60.77;100938.66;4824656;29;20096;-63
2021/08/05 08:58:57;;;;;;;;;;;;;;;24.59;59.55;100935.72;4835330;29;20164;-63
2021/08/05 09:01:25;;;;;;;85.97;47.05;;;;;;;24.91;56.20;100944.13;4826834;29;19971;-63
2021/08/05 09:03:52;;;;;;;83.35;45.55;;;;;;;25.19;56.03;100943.31;4826338;29;20090;-62
2021/08/05 09:06:18;;;;;;;85.18;48.20;;;;;;;25.32;54.22;100942.22;4826216;29;20579;-63
2021/08/05 09:08:46;;;;;;;87.57;47.35;;;;;;;25.45;54.91;100939.25;4834355;29;20140;-63
2021/08/05 09:11:12;;;;;;;89.50;47.50;;;;;;;25.52;54.35;100946.31;4842942;29;20108;-63
2021/08/05 09:13:39;;;;;;;80.30;45.65;;;;;;;25.49;51.82;100944.13;4834291;29;20442;-63
2021/08/05 09:16:23;;;;;;;85.45;48.90;;;;;;;25.71;51.22;100947.72;4830789;29;20891;-63
2021/08/05 09:18:50;;;;;;;74.07;42.95;;;;;;;25.89;51.65;100941.25;4830346;29;20495;-63
2021/08/05 09:21:21;;;;;;;71.57;41.10;;;;;;;26.06;51.44;100935.09;4830092;29;20096;-67
2021/08/05 09:24:09;;;;;;;67.03;40.40;;;;;;;26.32;49.20;100934.38;4827997;29;20324;-62
2021/08/05 09:26:42;;;;;;;80.30;47.60;;;;;;;26.53;48.95;100932.78;4833743;29;20058;-63
2021/08/05 09:29:16;;;;;;;81.53;45.17;;;;;;;26.47;50.12;100927.59;4826268;29;20316;-63
2021/08/05 09:31:49;;;;;;;72.07;45.60;;;;;;;26.34;49.02;100929.56;4831525;29;20097;-63
2021/08/05 09:34:17;;;;;;;77.03;47.97;;;;;;;26.46;48.89;100924.06;4828301;29;20057;-63
2021/08/05 09:36:45;;;;;;;79.93;48.35;;;;;;;26.52;48.99;100917.72;4834011;29;20157;-63
2021/08/05 09:39:26;;;;;;;75.30;45.72;;;;;;;26.81;49.20;100917.50;4819852;29;20089;-62
2021/08/05 09:41:56;;;;;;;73.22;42.30;;;;;;;26.94;48.82;100919.00;4811677;29;20476;-63
2021/08/05 09:44:25;;;;;;;79.10;43.10;;;;;;;27.00;47.59;100909.91;4805976;29;20058;-63
2021/08/05 09:47:09;;;;;;;65.07;39.30;;;;;;;27.33;47.76;100913.50;4815577;29;20507;-63
2021/08/05 09:49:50;;;;;;;62.72;37.67;;;;;;;27.56;46.74;100917.69;4837581;29;20062;-63
2021/08/05 09:52:31;;;;;;;60.53;38.90;;;;;;;27.50;46.90;100908.78;4851620;29;20100;-63
2021/08/05 09:54:59;;;;;;;62.70;37.95;;;;;;;27.73;45.61;100915.69;4813985;29;20095;-62
2021/08/05 09:57:35;;;;;;;61.88;38.40;;;;;;;27.73;44.51;100904.09;4828509;29;20156;-63
2021/08/05 10:00:06;;;;;;;47.65;29.90;;;;;;;27.97;44.06;100899.97;4833399;29;20777;-63
2021/08/05 10:02:45;;;;;;;52.70;32.97;;;;;;;28.22;44.86;100895.78;4826399;29;20062;-63
2021/08/05 10:05:14;;;;;;;51.97;35.47;;;;;;;27.88;42.86;100898.84;4832865;29;20061;-62
2021/08/05 10:07:55;;;;;;;53.60;33.42;;;;;;;27.87;44.46;100890.97;4824676;29;20163;-62
2021/08/05 10:10:26;;;;;;;56.50;36.65;;;;;;;27.91;43.77;100894.81;4839682;29;20490;-63
2021/08/05 10:12:54;;;;;;;57.80;35.60;;;;;;;27.84;42.52;100889.63;4830865;29;20066;-63
2021/08/05 10:15:21;;;;;;;52.67;34.35;;;;;;;28.18;46.44;100881.19;4833093;29;20145;-63
2021/08/05 10:17:51;;;;;;;49.67;33.28;;;;;;;28.16;43.91;100886.03;4826308;29;20144;-63
2021/08/05 10:20:19;;;;;;;47.67;32.15;;;;;;;27.91;44.36;100881.31;4831938;29;20161;-63
2021/08/05 10:22:48;;;;;;;46.20;32.92;;;;;;;28.07;45.40;100879.53;4821558;29;20053;-63
2021/08/05 10:25:17;;;;;;;53.13;36.53;;;;;;;28.23;43.21;100880.41;4829545;29;20068;-63
2021/08/05 10:27:45;;;;;;;44.33;32.25;;;;;;;28.36;44.41;100872.66;4833384;29;20157;-64
2021/08/05 10:30:14;;;;;;;55.67;37.85;;;;;;;28.18;42.53;100876.59;4826779;29;20093;-63
2021/08/05 10:32:42;;;;;;;46.10;34.90;;;;;;;27.99;44.09;100875.44;4832794;29;20522;-63
2021/08/05 10:35:11;;;;;;;43.25;30.02;;;;;;;27.77;45.04;100868.28;4825070;29;20507;-63
2021/08/05 10:37:38;;;;;;;54.38;34.72;;;;;;;27.44;44.55;100869.41;4832736;29;20089;-63
2021/08/05 10:40:07;;;;;;;45.42;33.03;;;;;;;27.47;43.57;100868.88;4812582;29;20101;-63
2021/08/05 10:42:34;;;;;;;54.83;37.20;;;;;;;27.52;43.02;100866.25;4814201;29;20134;-63
2021/08/05 10:45:01;;;;;;;;;;;;;;;27.55;42.78;100863.03;4808894;29;20050;-62
2021/08/05 10:47:30;;;;;;;48.17;30.83;;;;;;;27.54;43.97;100863.28;4807975;29;20023;-62
2021/08/05 10:50:00;;;;;;;42.33;30.30;;;;;;;27.60;43.56;100859.56;4850228;29;20474;-62
2021/08/05 10:52:37;;;;;;;42.90;28.67;;;;;;;27.79;43.20;100866.13;4844625;29;20133;-62
2021/08/05 10:55:05;;;;;;;40.33;30.00;;;;;;;27.80;43.33;100853.47;4820191;29;20455;-62
2021/08/05 10:57:32;;;;;;;51.85;33.53;;;;;;;27.67;41.66;100845.84;4825458;29;20149;-62
2021/08/05 11:00:15;;;;;;;51.28;35.90;;;;;;;27.74;41.52;100847.25;4830472;29;20073;-62
2021/08/05 11:02:41;;;;;;;41.03;31.05;;;;;;;27.94;42.94;100841.19;4823541;29;20149;-62
2021/08/05 11:05:09;;;;;;;44.00;30.33;;;;;;;28.26;42.83;100845.63;4833137;29;20122;-63
2021/08/05 11:07:35;;;;;;;52.42;38.03;;;;;;;28.39;41.05;100838.94;4826496;29;20142;-64
2021/08/05 11:10:14;;;;;;;53.72;39.00;;;;;;;28.52;41.04;100841.19;4841673;29;20494;-64
2021/08/05 11:12:45;;;;;;;48.67;37.38;;;;;;;28.51;40.81;100836.03;4827523;29;20168;-64
2021/08/05 11:15:32;;;;;;;34.92;27.98;;;;;;;28.77;41.53;100835.00;4828258;29;20081;-64